createdAt,value
2023-05-13T00:00:18.074Z,11.92
2023-05-13T00:02:44.682Z,11.89
2023-05-13T00:05:11.415Z,11.81
2023-05-13T00:07:37.964Z,11.80
2023-05-13T00:10:13.564Z,11.75
2023-05-13T00:12:40.119Z,11.60
2023-05-13T00:15:07.219Z,11.60
2023-05-13T00:17:33.737Z,11.75
2023-05-13T00:20:00.953Z,11.83
2023-05-13T00:22:27.408Z,11.80
2023-05-13T00:24:53.888Z,11.77
2023-05-13T00:27:28.014Z,11.65
2023-05-13T00:29:54.505Z,11.50
2023-05-13T00:32:23.990Z,11.38
2023-05-13T00:34:50.680Z,11.35
2023-05-13T00:37:17.236Z,11.24
2023-05-13T00:39:43.728Z,11.17
2023-05-13T00:42:13.767Z,11.16
2023-05-13T00:44:40.813Z,11.07
2023-05-13T00:47:19.621Z,11.03
2023-05-13T00:49:54.468Z,11.13
2023-05-13T00:52:20.948Z,11.16
2023-05-13T00:54:47.392Z,11.10
2023-05-13T00:57:24.646Z,11.17
2023-05-13T00:59:51.842Z,11.02
2023-05-13T01:02:53.321Z,11.00
2023-05-13T01:05:32.322Z,10.71
2023-05-13T01:08:31.503Z,10.66
2023-05-13T01:11:09.571Z,10.80
2023-05-13T01:13:52.863Z,10.77
2023-05-13T01:16:41.182Z,10.62
2023-05-13T01:19:40.091Z,10.51
2023-05-13T01:22:10.353Z,10.53
2023-05-13T01:24:36.890Z,10.51
2023-05-13T01:27:04.064Z,10.46
2023-05-13T01:29:31.248Z,10.53
2023-05-13T01:32:00.604Z,10.56
2023-05-13T01:34:28.363Z,10.52
2023-05-13T01:37:00.039Z,10.52
2023-05-13T01:39:27.902Z,10.34
2023-05-13T01:41:54.413Z,10.28
2023-05-13T01:44:20.869Z,10.23
2023-05-13T01:46:55.390Z,10.27
2023-05-13T01:49:21.952Z,10.43
2023-05-13T01:51:48.418Z,10.42
2023-05-13T01:54:14.864Z,10.34
2023-05-13T01:56:41.338Z,10.32
2023-05-13T01:59:10.323Z,10.26
2023-05-13T02:01:37.009Z,10.31
2023-05-13T02:04:03.806Z,10.28
2023-05-13T02:06:30.391Z,10.25
2023-05-13T02:08:56.887Z,10.12
2023-05-13T02:11:23.424Z,10.00
2023-05-13T02:13:49.891Z,9.99
2023-05-13T02:16:18.175Z,10.05
2023-05-13T02:18:44.756Z,10.13
2023-05-13T02:21:11.403Z,10.12
2023-05-13T02:23:37.844Z,9.77
2023-05-13T02:26:04.525Z,9.77
2023-05-13T02:28:31.035Z,9.79
2023-05-13T02:30:57.492Z,9.69
2023-05-13T02:33:23.938Z,9.60
2023-05-13T02:35:50.468Z,9.59
2023-05-13T02:38:16.972Z,9.55
2023-05-13T02:40:44.130Z,9.50
2023-05-13T02:43:10.651Z,9.52
2023-05-13T02:45:40.092Z,9.60
2023-05-13T02:48:06.606Z,9.69
2023-05-13T02:50:33.247Z,9.66
2023-05-13T02:52:59.821Z,9.57
2023-05-13T02:55:26.512Z,9.41
2023-05-13T02:57:52.997Z,9.45
2023-05-13T03:00:19.892Z,9.50
2023-05-13T03:02:46.677Z,9.42
2023-05-13T03:05:13.218Z,9.38
2023-05-13T03:07:39.820Z,9.40
2023-05-13T03:10:07.346Z,9.35
2023-05-13T03:12:36.591Z,9.26
2023-05-13T03:15:12.848Z,9.22
2023-05-13T03:17:39.347Z,9.36
2023-05-13T03:20:09.442Z,9.38
2023-05-13T03:22:40.304Z,9.25
2023-05-13T03:25:07.584Z,9.18
2023-05-13T03:27:46.913Z,9.18
2023-05-13T03:30:14.164Z,9.21
2023-05-13T03:32:40.789Z,9.25
2023-05-13T03:35:07.737Z,9.29
2023-05-13T03:37:34.189Z,9.37
2023-05-13T03:40:00.892Z,9.39
2023-05-13T03:42:28.273Z,9.38
2023-05-13T03:44:56.909Z,9.44
2023-05-13T03:47:24.008Z,9.50
2023-05-13T03:49:50.559Z,9.50
2023-05-13T03:52:17.083Z,9.35
2023-05-13T03:54:45.200Z,9.44
2023-05-13T03:57:11.640Z,9.50
2023-05-13T03:59:38.126Z,9.61
2023-05-13T04:02:04.930Z,9.67
2023-05-13T04:04:31.469Z,9.71
2023-05-13T04:06:57.959Z,9.60
2023-05-13T04:09:24.449Z,9.52
2023-05-13T04:11:51.011Z,9.27
2023-05-13T04:14:17.950Z,9.25
2023-05-13T04:16:44.546Z,9.47
2023-05-13T04:19:11.561Z,9.50
2023-05-13T04:21:38.130Z,9.58
2023-05-13T04:24:05.236Z,9.61
2023-05-13T04:26:37.161Z,9.69
2023-05-13T04:29:03.605Z,9.46
2023-05-13T04:31:30.138Z,9.58
2023-05-13T04:33:56.963Z,9.39
2023-05-13T04:36:23.466Z,9.23
2023-05-13T04:38:57.679Z,9.26
2023-05-13T04:41:24.427Z,9.27
2023-05-13T04:43:51.015Z,9.34
2023-05-13T04:46:17.653Z,9.29
2023-05-13T04:48:48.158Z,9.42
2023-05-13T04:51:27.518Z,9.53
2023-05-13T04:53:54.540Z,9.66
2023-05-13T04:56:21.773Z,9.73
2023-05-13T04:58:49.886Z,9.66
2023-05-13T05:01:16.435Z,9.68
2023-05-13T05:03:43.004Z,9.75
2023-05-13T05:06:09.558Z,9.72
2023-05-13T05:08:36.054Z,9.72
2023-05-13T05:11:02.541Z,9.79
2023-05-13T05:13:29.023Z,9.82
2023-05-13T05:15:55.864Z,9.96
2023-05-13T05:18:22.459Z,10.06
2023-05-13T05:20:49.068Z,10.02
2023-05-13T05:23:15.594Z,10.00
2023-05-13T05:25:42.082Z,10.01
2023-05-13T05:28:09.240Z,9.98
2023-05-13T05:30:39.475Z,10.02
2023-05-13T05:33:09.757Z,10.06
2023-05-13T05:35:38.199Z,10.18
2023-05-13T05:38:05.296Z,10.13
2023-05-13T05:40:32.963Z,10.21
2023-05-13T05:42:59.463Z,10.38
2023-05-13T05:45:25.983Z,10.53
2023-05-13T05:47:53.972Z,10.58
2023-05-13T05:50:21.019Z,10.73
2023-05-13T05:52:47.615Z,10.84
2023-05-13T05:55:14.099Z,10.97
2023-05-13T05:57:40.587Z,11.06
2023-05-13T06:00:08.047Z,11.13
2023-05-13T06:02:34.670Z,11.05
2023-05-13T06:05:01.198Z,11.02
2023-05-13T06:07:27.688Z,11.14
2023-05-13T06:09:55.223Z,11.22
2023-05-13T06:12:22.666Z,11.30
2023-05-13T06:14:49.743Z,11.38
2023-05-13T06:17:16.248Z,11.50
2023-05-13T06:19:42.816Z,11.63
2023-05-13T06:22:10.455Z,11.75
2023-05-13T06:24:38.802Z,11.75
2023-05-13T06:27:05.593Z,11.83
2023-05-13T06:29:32.083Z,11.86
2023-05-13T06:31:58.796Z,11.94
2023-05-13T06:34:25.383Z,12.08
2023-05-13T06:36:51.936Z,12.28
2023-05-13T06:39:18.417Z,12.49
2023-05-13T06:41:44.961Z,12.71
2023-05-13T06:44:11.465Z,12.88
2023-05-13T06:46:38.012Z,13.05
2023-05-13T06:49:04.817Z,13.15
2023-05-13T06:51:32.915Z,13.30
2023-05-13T06:53:59.469Z,13.50
2023-05-13T06:56:26.356Z,13.84
2023-05-13T06:58:53.383Z,14.09
2023-05-13T07:01:19.897Z,14.29
2023-05-13T07:03:46.551Z,14.44
2023-05-13T07:06:13.063Z,14.61
2023-05-13T07:08:40.716Z,14.74
2023-05-13T07:11:07.326Z,14.93
2023-05-13T07:13:34.910Z,15.02
2023-05-13T07:16:04.320Z,15.15
2023-05-13T07:18:31.004Z,15.26
2023-05-13T07:20:57.580Z,15.55
2023-05-13T07:23:24.187Z,15.58
2023-05-13T07:25:52.036Z,15.75
2023-05-13T07:28:22.190Z,15.71
2023-05-13T07:30:48.751Z,15.97
2023-05-13T07:33:15.345Z,16.10
2023-05-13T07:35:42.023Z,15.98
2023-05-13T07:38:11.011Z,16.01
2023-05-13T07:40:37.963Z,16.16
2023-05-13T07:43:04.680Z,16.18
2023-05-13T07:45:31.654Z,16.09
2023-05-13T07:47:58.382Z,16.16
2023-05-13T07:50:24.878Z,16.32
2023-05-13T07:52:51.821Z,16.36
2023-05-13T07:55:18.801Z,16.56
2023-05-13T07:57:45.651Z,16.75
2023-05-13T08:00:12.758Z,16.77
2023-05-13T08:02:39.644Z,16.63
2023-05-13T08:05:07.053Z,16.54
2023-05-13T08:07:36.127Z,16.53
2023-05-13T08:10:02.788Z,16.61
2023-05-13T08:12:29.295Z,16.61
2023-05-13T08:14:55.780Z,16.88
2023-05-13T08:17:22.595Z,17.19
2023-05-13T08:19:49.130Z,17.43
2023-05-13T08:22:15.690Z,17.49
2023-05-13T08:24:43.092Z,17.32
2023-05-13T08:27:09.800Z,17.65
2023-05-13T08:29:36.320Z,17.48
2023-05-13T08:32:03.015Z,17.51
2023-05-13T08:34:29.700Z,17.64
2023-05-13T08:36:56.226Z,17.71
2023-05-13T08:39:22.755Z,18.22
2023-05-13T08:41:52.034Z,18.10
2023-05-13T08:44:22.486Z,18.29
2023-05-13T08:47:04.416Z,18.29
2023-05-13T08:49:31.409Z,18.59
2023-05-13T08:51:58.004Z,18.41
2023-05-13T08:54:25.762Z,18.39
2023-05-13T08:56:52.285Z,18.48
2023-05-13T08:59:18.732Z,18.59
2023-05-13T09:01:45.616Z,18.78
2023-05-13T09:04:12.536Z,18.91
2023-05-13T09:06:38.977Z,19.19
2023-05-13T09:09:06.380Z,19.17
2023-05-13T09:11:33.963Z,18.99
2023-05-13T09:14:03.709Z,18.83
2023-05-13T09:16:32.579Z,18.97
2023-05-13T09:19:05.305Z,19.28
2023-05-13T09:21:35.981Z,19.10
2023-05-13T09:24:23.293Z,19.00
2023-05-13T09:26:51.546Z,19.18
2023-05-13T09:29:29.032Z,19.11
2023-05-13T09:31:58.965Z,19.35
2023-05-13T09:34:34.342Z,19.50
2023-05-13T09:37:08.670Z,19.68
2023-05-13T09:39:41.449Z,20.29
2023-05-13T09:42:19.329Z,20.60
2023-05-13T09:44:47.256Z,20.60
2023-05-13T09:47:15.419Z,20.67
2023-05-13T09:49:44.093Z,20.38
2023-05-13T09:52:11.710Z,20.32
2023-05-13T09:54:38.907Z,20.24
2023-05-13T09:57:06.230Z,20.17
2023-05-13T09:59:34.771Z,20.45
2023-05-13T10:02:06.646Z,20.56
2023-05-13T10:04:33.927Z,20.78
2023-05-13T10:07:04.976Z,20.99
2023-05-13T10:09:38.434Z,20.83
2023-05-13T10:12:08.473Z,20.79
2023-05-13T10:14:37.342Z,20.75
2023-05-13T10:17:05.301Z,20.75
2023-05-13T10:19:32.515Z,20.54
2023-05-13T10:21:59.627Z,20.66
2023-05-13T10:24:28.853Z,20.87
2023-05-13T10:26:56.873Z,20.80
2023-05-13T10:29:26.385Z,20.49
2023-05-13T10:31:54.325Z,20.10
2023-05-13T10:34:22.872Z,20.05
2023-05-13T10:37:04.182Z,20.01
2023-05-13T10:40:19.852Z,19.71
2023-05-13T10:43:25.100Z,19.62
2023-05-13T10:46:02.258Z,19.75
2023-05-13T10:48:50.998Z,20.02
2023-05-13T10:51:23.892Z,20.14
2023-05-13T10:53:57.882Z,20.19
2023-05-13T10:56:28.898Z,20.64
2023-05-13T10:59:02.375Z,20.51
2023-05-13T11:01:44.251Z,20.20
2023-05-13T11:04:21.312Z,19.94
2023-05-13T11:06:50.641Z,19.91
2023-05-13T11:09:20.291Z,20.28
2023-05-13T11:11:55.445Z,20.08
2023-05-13T11:14:25.242Z,20.02
2023-05-13T11:17:10.087Z,20.01
2023-05-13T11:19:44.632Z,20.21
2023-05-13T11:22:15.483Z,20.52
2023-05-13T11:24:46.556Z,20.51
2023-05-13T11:27:15.369Z,20.53
2023-05-13T11:29:53.335Z,20.40
2023-05-13T11:32:55.957Z,20.30
2023-05-13T11:35:33.147Z,20.25
2023-05-13T11:38:02.204Z,20.40
2023-05-13T11:40:36.968Z,20.56
2023-05-13T11:43:05.167Z,21.01
2023-05-13T11:45:32.363Z,21.08
2023-05-13T11:47:59.060Z,21.07
2023-05-13T11:50:32.285Z,21.09
2023-05-13T11:53:01.756Z,21.27
2023-05-13T11:55:29.132Z,21.21
2023-05-13T11:57:56.876Z,21.18
2023-05-13T12:00:28.722Z,21.09
2023-05-13T12:02:56.403Z,21.09
2023-05-13T12:05:23.828Z,20.91
2023-05-13T12:07:51.292Z,20.77
2023-05-13T12:10:18.168Z,20.64
2023-05-13T12:12:46.240Z,20.71
2023-05-13T12:15:16.969Z,20.95
2023-05-13T12:17:44.899Z,21.14
2023-05-13T12:20:14.079Z,20.86
2023-05-13T12:22:43.758Z,20.58
2023-05-13T12:25:35.084Z,20.42
2023-05-13T12:28:25.278Z,20.48
2023-05-13T12:31:01.292Z,20.84
2023-05-13T12:33:40.569Z,21.10
2023-05-13T12:36:33.717Z,21.23
2023-05-13T12:39:10.088Z,21.51
2023-05-13T12:41:41.144Z,20.98
2023-05-13T12:44:17.000Z,21.00
2023-05-13T12:46:54.558Z,20.93
2023-05-13T12:49:21.257Z,21.04
2023-05-13T12:51:47.879Z,21.14
2023-05-13T12:54:14.484Z,21.24
2023-05-13T12:56:41.127Z,20.82
2023-05-13T12:59:09.039Z,20.45
2023-05-13T13:01:37.213Z,20.83
2023-05-13T13:04:04.029Z,20.62
2023-05-13T13:06:32.278Z,20.56
2023-05-13T13:08:58.783Z,20.25
2023-05-13T13:11:25.288Z,20.17
2023-05-13T13:13:52.129Z,20.31
2023-05-13T13:16:18.976Z,20.37
2023-05-13T13:18:45.740Z,20.47
2023-05-13T13:21:12.253Z,20.59
2023-05-13T13:23:38.755Z,20.73
2023-05-13T13:26:05.321Z,20.84
2023-05-13T13:28:31.866Z,20.88
2023-05-13T13:30:59.562Z,20.99
2023-05-13T13:33:26.037Z,21.13
2023-05-13T13:35:52.636Z,21.14
2023-05-13T13:38:19.168Z,20.98
2023-05-13T13:40:45.682Z,21.12
2023-05-13T13:43:12.230Z,21.45
2023-05-13T13:45:39.156Z,21.36
2023-05-13T13:48:06.292Z,21.17
2023-05-13T13:50:32.896Z,21.64
2023-05-13T13:52:59.550Z,21.98
2023-05-13T13:55:26.901Z,21.67
2023-05-13T13:57:53.493Z,21.52
2023-05-13T14:00:20.589Z,21.58
2023-05-13T14:02:47.485Z,21.99
2023-05-13T14:05:14.367Z,22.03
2023-05-13T14:07:41.150Z,21.78
2023-05-13T14:10:08.758Z,21.37
2023-05-13T14:12:38.313Z,21.27
2023-05-13T14:15:05.998Z,21.16
2023-05-13T14:17:33.531Z,21.13
2023-05-13T14:20:00.140Z,20.93
2023-05-13T14:22:26.996Z,20.93
2023-05-13T14:24:53.601Z,21.08
2023-05-13T14:27:21.415Z,21.27
2023-05-13T14:29:48.824Z,21.20
2023-05-13T14:32:15.732Z,21.06
2023-05-13T14:34:43.068Z,21.00
2023-05-13T14:37:09.691Z,20.94
2023-05-13T14:39:36.314Z,20.80
2023-05-13T14:42:03.593Z,20.80
2023-05-13T14:44:30.192Z,20.83
2023-05-13T14:46:56.881Z,20.84
2023-05-13T14:49:23.536Z,20.84
2023-05-13T14:51:50.080Z,20.89
2023-05-13T14:54:17.694Z,21.15
2023-05-13T14:56:44.786Z,20.94
2023-05-13T14:59:11.620Z,20.65
2023-05-13T15:01:38.488Z,20.75
2023-05-13T15:04:05.445Z,20.79
2023-05-13T15:06:32.098Z,20.86
2023-05-13T15:08:58.740Z,20.91
2023-05-13T15:11:28.205Z,21.24
2023-05-13T15:13:55.401Z,21.27
2023-05-13T15:16:22.373Z,21.04
2023-05-13T15:18:50.148Z,21.06
2023-05-13T15:21:17.380Z,21.19
2023-05-13T15:23:43.971Z,21.10
2023-05-13T15:26:10.572Z,21.09
2023-05-13T15:28:37.748Z,21.09
2023-05-13T15:31:05.553Z,21.18
2023-05-13T15:33:35.371Z,21.06
2023-05-13T15:36:01.981Z,20.88
2023-05-13T15:38:28.549Z,21.08
2023-05-13T15:40:55.015Z,21.14
2023-05-13T15:43:21.601Z,21.15
2023-05-13T15:45:49.691Z,21.40
2023-05-13T15:48:17.433Z,21.62
2023-05-13T15:50:44.251Z,21.69
2023-05-13T15:53:10.901Z,21.73
2023-05-13T15:55:39.255Z,21.71
2023-05-13T15:58:06.053Z,21.75
2023-05-13T16:00:32.673Z,21.63
2023-05-13T16:02:59.166Z,21.63
2023-05-13T16:05:25.874Z,21.58
2023-05-13T16:07:52.451Z,21.60
2023-05-13T16:10:18.981Z,21.51
2023-05-13T16:12:45.534Z,21.73
2023-05-13T16:15:12.094Z,21.93
2023-05-13T16:17:38.702Z,22.04
2023-05-13T16:20:06.324Z,21.91
2023-05-13T16:22:38.227Z,21.83
2023-05-13T16:25:08.101Z,21.84
2023-05-13T16:27:36.470Z,21.82
2023-05-13T16:30:06.121Z,21.74
2023-05-13T16:32:34.716Z,21.53
2023-05-13T16:35:02.352Z,21.64
2023-05-13T16:37:30.129Z,21.57
2023-05-13T16:39:56.957Z,21.58
2023-05-13T16:42:23.610Z,21.53
2023-05-13T16:44:50.204Z,21.53
2023-05-13T16:47:16.718Z,21.44
2023-05-13T16:49:43.366Z,21.37
2023-05-13T16:52:09.872Z,21.40
2023-05-13T16:54:36.408Z,21.42
2023-05-13T16:57:03.071Z,21.37
2023-05-13T16:59:29.614Z,21.26
2023-05-13T17:01:56.199Z,20.98
2023-05-13T17:04:22.856Z,20.69
2023-05-13T17:06:49.500Z,20.61
2023-05-13T17:09:16.138Z,20.52
2023-05-13T17:11:43.471Z,20.50
2023-05-13T17:14:10.086Z,20.47
2023-05-13T17:16:36.959Z,20.32
2023-05-13T17:19:03.633Z,20.17
2023-05-13T17:21:30.357Z,20.29
2023-05-13T17:23:56.859Z,20.21
2023-05-13T17:26:23.408Z,20.12
2023-05-13T17:28:49.964Z,20.02
2023-05-13T17:31:16.708Z,20.13
2023-05-13T17:33:43.876Z,19.97
2023-05-13T17:36:10.917Z,19.89
2023-05-13T17:38:37.946Z,19.86
2023-05-13T17:41:04.982Z,19.87
2023-05-13T17:43:31.660Z,19.92
2023-05-13T17:45:58.822Z,20.05
2023-05-13T17:48:26.944Z,20.32
2023-05-13T17:50:53.815Z,20.63
2023-05-13T17:53:21.030Z,20.98
2023-05-13T17:55:48.559Z,20.98
2023-05-13T17:58:16.317Z,20.90
2023-05-13T18:00:43.310Z,20.76
2023-05-13T18:03:09.888Z,20.57
2023-05-13T18:05:36.639Z,20.36
2023-05-13T18:08:03.300Z,20.00
2023-05-13T18:10:29.913Z,19.75
2023-05-13T18:12:56.457Z,19.60
2023-05-13T18:15:23.321Z,19.46
2023-05-13T18:17:50.593Z,19.25
2023-05-13T18:20:19.753Z,18.94
2023-05-13T18:22:46.359Z,18.80
2023-05-13T18:25:13.133Z,18.62
2023-05-13T18:27:39.607Z,18.46
2023-05-13T18:30:07.652Z,18.38
2023-05-13T18:32:34.213Z,18.29
2023-05-13T18:35:00.714Z,18.13
2023-05-13T18:37:27.229Z,17.92
2023-05-13T18:39:53.760Z,17.64
2023-05-13T18:42:20.901Z,17.45
2023-05-13T18:44:47.487Z,17.22
2023-05-13T18:47:13.971Z,16.97
2023-05-13T18:49:40.425Z,16.83
2023-05-13T18:52:07.249Z,16.73
2023-05-13T18:54:33.742Z,16.56
2023-05-13T18:57:00.435Z,16.42
2023-05-13T18:59:27.139Z,16.31
2023-05-13T19:01:53.774Z,16.11
2023-05-13T19:04:20.570Z,15.94
2023-05-13T19:06:47.326Z,15.75
2023-05-13T19:09:14.273Z,15.71
2023-05-13T19:11:40.812Z,15.56
2023-05-13T19:14:07.455Z,15.46
2023-05-13T19:16:34.081Z,15.36
2023-05-13T19:19:00.624Z,15.20
2023-05-13T19:21:27.155Z,15.00
2023-05-13T19:23:53.691Z,14.89
2023-05-13T19:26:20.614Z,14.78
2023-05-13T19:28:47.617Z,14.63
2023-05-13T19:31:14.213Z,14.53
2023-05-13T19:33:41.063Z,14.45
2023-05-13T19:36:08.781Z,14.38
2023-05-13T19:38:35.596Z,14.33
2023-05-13T19:41:02.098Z,14.35
2023-05-13T19:43:28.611Z,14.13
2023-05-13T19:45:57.425Z,14.08
2023-05-13T19:48:23.946Z,14.06
2023-05-13T19:50:53.222Z,13.88
2023-05-13T19:53:21.437Z,13.74
2023-05-13T19:55:47.960Z,13.60
2023-05-13T19:58:14.467Z,13.45
2023-05-13T20:00:41.025Z,13.39
2023-05-13T20:03:07.575Z,13.38
2023-05-13T20:05:34.208Z,13.36
2023-05-13T20:08:01.114Z,13.35
2023-05-13T20:10:27.706Z,13.21
2023-05-13T20:12:54.227Z,13.05
2023-05-13T20:15:20.885Z,12.95
2023-05-13T20:17:47.530Z,12.99
2023-05-13T20:20:14.145Z,12.88
2023-05-13T20:22:40.654Z,12.72
2023-05-13T20:25:07.541Z,12.57
2023-05-13T20:27:34.758Z,12.54
2023-05-13T20:30:02.074Z,12.57
2023-05-13T20:32:28.694Z,12.48
2023-05-13T20:34:55.217Z,12.55
2023-05-13T20:37:24.086Z,12.54
2023-05-13T20:39:51.558Z,12.42
2023-05-13T20:42:18.170Z,12.28
2023-05-13T20:44:46.292Z,12.23
2023-05-13T20:47:14.137Z,12.15
2023-05-13T20:49:43.742Z,12.06
2023-05-13T20:52:11.158Z,12.10
2023-05-13T20:54:38.552Z,12.07
2023-05-13T20:57:05.702Z,11.94
2023-05-13T20:59:32.438Z,11.87
2023-05-13T21:01:59.041Z,11.91
2023-05-13T21:04:25.623Z,11.89
2023-05-13T21:06:52.973Z,11.97
2023-05-13T21:09:19.502Z,11.92
2023-05-13T21:11:46.109Z,11.99
2023-05-13T21:14:12.609Z,11.87
2023-05-13T21:16:39.102Z,11.74
2023-05-13T21:19:05.721Z,11.65
2023-05-13T21:21:32.380Z,11.70
2023-05-13T21:23:58.931Z,11.66
2023-05-13T21:26:25.933Z,11.65
2023-05-13T21:28:52.505Z,11.73
2023-05-13T21:31:19.095Z,11.68
2023-05-13T21:33:45.635Z,11.54
2023-05-13T21:36:12.093Z,11.44
2023-05-13T21:38:38.523Z,11.27
2023-05-13T21:41:05.063Z,11.31
2023-05-13T21:43:31.548Z,11.28
2023-05-13T21:45:58.152Z,11.23
2023-05-13T21:48:24.824Z,10.95
2023-05-13T21:50:53.688Z,10.72
2023-05-13T21:53:20.194Z,10.85
2023-05-13T21:55:49.290Z,10.71
2023-05-13T21:58:16.169Z,10.78
2023-05-13T22:00:44.004Z,10.71
2023-05-13T22:03:10.669Z,10.56
2023-05-13T22:05:43.493Z,10.49
2023-05-13T22:08:11.054Z,10.50
2023-05-13T22:10:38.988Z,10.46
2023-05-13T22:13:06.062Z,10.44
2023-05-13T22:15:32.608Z,10.50
2023-05-13T22:17:59.272Z,10.65
2023-05-13T22:20:26.592Z,10.65
2023-05-13T22:22:53.187Z,10.60
2023-05-13T22:25:21.956Z,10.62
2023-05-13T22:27:55.341Z,10.40
2023-05-13T22:30:21.969Z,10.42
2023-05-13T22:32:50.330Z,10.41
2023-05-13T22:35:17.095Z,10.41
2023-05-13T22:37:43.833Z,10.26
2023-05-13T22:40:18.688Z,10.08
2023-05-13T22:42:53.403Z,10.02
2023-05-13T22:45:19.959Z,10.03
2023-05-13T22:47:48.032Z,9.90
2023-05-13T22:50:14.591Z,10.02
2023-05-13T22:52:41.130Z,10.00
2023-05-13T22:55:08.621Z,9.98
2023-05-13T22:57:35.158Z,9.90
2023-05-13T23:00:01.914Z,9.93
2023-05-13T23:02:28.432Z,9.88
2023-05-13T23:04:54.957Z,9.87
2023-05-13T23:07:22.719Z,9.89
2023-05-13T23:09:57.986Z,9.75
2023-05-13T23:12:33.196Z,9.82
2023-05-13T23:14:59.724Z,9.64
2023-05-13T23:17:26.248Z,9.58
2023-05-13T23:19:52.708Z,9.64
2023-05-13T23:22:19.161Z,9.71
2023-05-13T23:24:45.619Z,9.60
2023-05-13T23:27:22.836Z,9.47
2023-05-13T23:29:49.277Z,9.46
2023-05-13T23:32:16.046Z,9.34
2023-05-13T23:34:42.565Z,9.18
2023-05-13T23:37:09.074Z,9.20
2023-05-13T23:39:35.860Z,9.15
2023-05-13T23:42:02.396Z,9.00
2023-05-13T23:44:37.781Z,8.99
2023-05-13T23:47:04.737Z,8.96
2023-05-13T23:49:31.268Z,8.94
2023-05-13T23:51:57.713Z,9.05
2023-05-13T23:54:24.198Z,9.06
2023-05-13T23:56:53.277Z,9.13
2023-05-13T23:59:19.860Z,9.14
